TimeCST,TemperatureF,Dew PointF,Humidity,Sea Level PressureIn,VisibilityMPH,Wind Direction,Wind SpeedMPH,Gust SpeedMPH,PrecipitationIn,Events,Conditions,WindDirDegrees,DateUTC
12:52 AM,21.9,18.0,85,29.98,9.0,ESE,3.5,-,N/A,,Clear,110,2014-02-13 06:52:00
1:52 AM,21.9,17.1,82,29.99,9.0,Calm,Calm,-,N/A,,Clear,0,2014-02-13 07:52:00
2:52 AM,23.0,18.0,81,29.97,7.0,SSE,5.8,-,N/A,,Clear,150,2014-02-13 08:52:00
3:52 AM,24.1,19.0,81,29.94,8.0,SSE,6.9,-,N/A,,Clear,160,2014-02-13 09:52:00
4:52 AM,25.0,19.9,81,29.93,7.0,South,6.9,-,N/A,,Clear,180,2014-02-13 10:52:00
5:52 AM,21.9,18.0,85,29.95,7.0,Calm,Calm,-,N/A,,Clear,0,2014-02-13 11:52:00
6:52 AM,21.0,17.1,85,29.95,6.0,South,3.5,-,N/A,,Clear,190,2014-02-13 12:52:00
7:52 AM,21.9,19.0,89,29.97,4.0,South,3.5,-,N/A,,Clear,190,2014-02-13 13:52:00
8:52 AM,28.9,24.1,82,29.97,6.0,WSW,5.8,-,N/A,,Haze,240,2014-02-13 14:52:00
9:52 AM,34.0,26.1,73,29.96,7.0,SW,6.9,-,N/A,,Clear,220,2014-02-13 15:52:00
10:52 AM,39.0,28.9,67,29.95,10.0,WSW,10.4,-,N/A,,Clear,250,2014-02-13 16:52:00
11:52 AM,42.1,30.0,62,29.93,10.0,SW,10.4,-,N/A,,Clear,230,2014-02-13 17:52:00
12:52 PM,46.0,28.0,50,29.88,10.0,WSW,13.8,-,N/A,,Clear,250,2014-02-13 18:52:00
1:52 PM,48.0,28.9,48,29.85,10.0,WSW,17.3,-,N/A,,Clear,240,2014-02-13 19:52:00
2:52 PM,50.0,30.0,46,29.82,10.0,West,15.0,-,N/A,,Clear,270,2014-02-13 20:52:00
3:52 PM,50.0,32.0,50,29.82,10.0,West,15.0,-,N/A,,Clear,270,2014-02-13 21:52:00
4:52 PM,50.0,32.0,50,29.82,10.0,WSW,11.5,-,N/A,,Clear,250,2014-02-13 22:52:00
5:52 PM,46.0,30.9,56,29.84,10.0,West,8.1,-,N/A,,Clear,270,2014-02-13 23:52:00
6:52 PM,36.0,28.0,73,29.85,10.0,SW,5.8,-,N/A,,Clear,220,2014-02-14 00:52:00
7:52 PM,33.1,27.0,78,29.84,10.0,SW,6.9,-,N/A,,Clear,230,2014-02-14 01:52:00
8:52 PM,34.0,27.0,75,29.85,10.0,WSW,6.9,-,N/A,,Clear,240,2014-02-14 02:52:00
9:52 PM,33.1,27.0,78,29.83,10.0,South,4.6,-,N/A,,Clear,190,2014-02-14 03:52:00
10:52 PM,28.9,24.1,82,29.81,10.0,South,5.8,-,N/A,,Clear,170,2014-02-14 04:52:00
11:52 PM,32.0,27.0,82,29.78,10.0,South,5.8,-,N/A,,Clear,170,2014-02-14 05:52:00